• Join FlightAware (Why Join?)
  • Login
  • US Flag 
12:49AM EDT


 

Airport Tracker/Info


-or-


 

Live Flight TrackerFlight Track Log ✈ MAU746 ✈ 22-Apr-2013 ✈ FIMP / MRU - VOBL / BLR

Flight Track Log - Related Links

Times and Time Zones

All times are in EDT time to prevent confusion due to time zone crossing. See the MAU746 flight status page for this flight to view local times or setup timezone preferences in your user account.

Time Position Orientation Groundspeed Altitude Reporting Facility
EDT Latitude Longitude Course Direction KTS MPH feet Rate Location/Type
02:09PM -20.3330 57.8060 19° North 273 314 7,000  Level FlightAware
02:10PM -20.2870 57.8230 19° North 275 316 9,000 2,760 Climbing FlightAware
02:10PM -20.2860 57.8240 43° Northeast 276 318 9,100 120 Climbing FlightAware
02:10PM -20.2470 57.8390 20° North 276 318 9,100 1,980 Level FlightAware
02:11PM -20.1670 57.8820 27° Northeast 335 386 12,100 2,880 Climbing FlightAware
02:12PM -20.1120 57.9410 45° Northeast 357 411 13,900 2,280 Climbing FlightAware
02:13PM -20.0660 57.9880 44° Northeast 366 421 15,400 1,260 Climbing FlightAware
02:13PM -20.0200 58.0310 41° Northeast 367 422 15,600 2,460 Climbing FlightAware
02:14PM -19.9510 58.0910 39° Northeast 377 434 18,900 2,460 Climbing FlightAware
02:15PM -19.9080 58.1300 40° Northeast 377 434 18,900  Level FlightAware
02:16PM -19.8510 58.1810 40° Northeast 377 434 18,900  Level FlightAware
02:16PM -19.8060 58.2210 40° Northeast 377 434 18,900  Level FlightAware
02:17PM -19.7600 58.2620 40° Northeast 377 434 18,900  Level FlightAware
02:18PM -19.7150 58.3020 40° Northeast 377 434 18,900 2,520 Level FlightAware
02:20PM -19.5457 58.4127 32° Northeast  Level Estimated
02:21PM -19.4558 58.4714 32° Northeast  Level Estimated
02:21PM -19.3040 58.6760 32° Northeast 459 528 30,400  Level FlightAware
02:22PM -19.3659 58.5300 32° Northeast  Level Estimated
02:22PM -19.2470 58.7270 40° Northeast 463 533 31,200  Level FlightAware
02:23PM -19.1860 58.7810 40° Northeast 465 535 31,300 900 Climbing FlightAware
02:23PM -19.1110 58.8490 41° Northeast 481 554 32,400 780 Climbing FlightAware
02:24PM -19.0430 58.9090 40° Northeast 481 554 32,400  Level FlightAware
02:25PM -18.9850 58.9610 40° Northeast 481 554 32,400  Level FlightAware
02:26PM -18.9270 59.0120 40° Northeast 481 554 32,400  Level FlightAware
02:26PM -18.8550 59.0760 40° Northeast 481 554 32,400  Level FlightAware
02:27PM -18.7970 59.1280 40° Northeast 481 554 32,400  Level FlightAware
02:28PM -18.7390 59.1790 40° Northeast 481 554 32,400  Level FlightAware
02:28PM -18.6810 59.2300 40° Northeast 481 554 32,400  Level FlightAware
02:29PM -18.6230 59.2820 40° Northeast 481 554 32,400  Level FlightAware
02:30PM -18.5500 59.3460 40° Northeast 481 554 32,400  Level FlightAware
02:31PM -18.4920 59.3970 40° Northeast 481 554 32,400  Level FlightAware
02:31PM -18.4340 59.4480 40° Northeast 481 554 32,400  Level FlightAware
02:32PM -18.3760 59.5000 40° Northeast 481 554 32,400  Level FlightAware
02:33PM -18.3180 59.5510 40° Northeast 481 554 32,400  Level FlightAware
02:33PM -18.2460 59.6150 40° Northeast 481 554 32,400  Level FlightAware
02:36PM -18.0735 59.7673 40° Northeast  Level FlightAware Approximate
02:37PM -17.9925 59.8385 40° Northeast  Level FlightAware Approximate
02:38PM -17.9116 59.9097 40° Northeast  Level FlightAware Approximate
02:39PM -17.8306 59.9809 40° Northeast  Level FlightAware Approximate
02:40PM -17.7496 60.0519 40° Northeast  Level FlightAware Approximate
02:41PM -17.6686 60.1230 40° Northeast  Level FlightAware Approximate
02:42PM -17.5875 60.1939 40° Northeast  Level FlightAware Approximate
02:43PM -17.5065 60.2648 40° Northeast  Level FlightAware Approximate
02:44PM -17.4254 60.3356 40° Northeast  Level FlightAware Approximate
02:45PM -17.3442 60.4064 40° Northeast  Level FlightAware Approximate
02:46PM -17.2631 60.4771 40° Northeast  Level FlightAware Approximate
02:47PM -17.1819 60.5477 40° Northeast  Level FlightAware Approximate
02:48PM -17.1007 60.6183 40° Northeast  Level FlightAware Approximate
02:49PM -17.0195 60.6888 40° Northeast  Level FlightAware Approximate
02:50PM -16.9382 60.7592 40° Northeast  Level FlightAware Approximate
02:51PM -16.8570 60.8296 40° Northeast  Level FlightAware Approximate
02:52PM -16.7757 60.8999 40° Northeast  Level FlightAware Approximate
02:53PM -16.6943 60.9702 40° Northeast  Level FlightAware Approximate
02:54PM -16.6130 61.0404 40° Northeast  Level FlightAware Approximate
02:55PM -16.5316 61.1105 40° Northeast  Level FlightAware Approximate
02:56PM -16.4502 61.1806 40° Northeast  Level FlightAware Approximate
02:57PM -16.3688 61.2507 40° Northeast  Level FlightAware Approximate
02:58PM -16.2874 61.3206 40° Northeast  Level FlightAware Approximate
02:59PM -16.2059 61.3905 39° Northeast  Level FlightAware Approximate
03:00PM -16.1244 61.4604 39° Northeast  Level FlightAware Approximate
03:01PM -16.0429 61.5302 39° Northeast  Level FlightAware Approximate
03:02PM -15.9614 61.5999 39° Northeast  Level FlightAware Approximate
03:03PM -15.8798 61.6696 39° Northeast  Level FlightAware Approximate
03:04PM -15.7983 61.7393 39° Northeast  Level FlightAware Approximate
03:05PM -15.7167 61.8088 39° Northeast  Level FlightAware Approximate
03:06PM -15.6350 61.8783 39° Northeast  Level FlightAware Approximate
03:07PM -15.5534 61.9478 39° Northeast  Level FlightAware Approximate
03:08PM -15.4718 62.0172 39° Northeast  Level FlightAware Approximate
03:09PM -15.3901 62.0865 39° Northeast  Level FlightAware Approximate
03:10PM -15.3084 62.1558 39° Northeast  Level FlightAware Approximate
03:11PM -15.2266 62.2251 39° Northeast  Level FlightAware Approximate
03:12PM -15.1449 62.2943 39° Northeast  Level FlightAware Approximate
03:13PM -15.0631 62.3634 39° Northeast  Level FlightAware Approximate
03:14PM -14.9813 62.4324 39° Northeast  Level FlightAware Approximate
03:15PM -14.8995 62.5014 39° Northeast  Level FlightAware Approximate
03:16PM -14.8177 62.5704 39° Northeast  Level FlightAware Approximate
03:17PM -14.7358 62.6393 39° Northeast  Level FlightAware Approximate
03:18PM -14.6539 62.7081 39° Northeast  Level FlightAware Approximate
03:19PM -14.5720 62.7769 39° Northeast  Level FlightAware Approximate
03:20PM -14.4901 62.8457 39° Northeast  Level FlightAware Approximate
03:21PM -14.4081 62.9144 39° Northeast  Level FlightAware Approximate
03:22PM -14.3261 62.9830 39° Northeast  Level FlightAware Approximate
03:23PM -14.2442 63.0516 39° Northeast  Level FlightAware Approximate
03:24PM -14.1621 63.1201 39° Northeast  Level FlightAware Approximate
03:25PM -14.0801 63.1886 39° Northeast  Level FlightAware Approximate
03:26PM -13.9981 63.2571 39° Northeast  Level FlightAware Approximate
03:27PM -13.9160 63.3255 39° Northeast  Level FlightAware Approximate
03:28PM -13.8339 63.3938 39° Northeast  Level FlightAware Approximate
03:29PM -13.7518 63.4621 39° Northeast  Level FlightAware Approximate
03:30PM -13.6697 63.5304 39° Northeast  Level FlightAware Approximate
03:31PM -13.5875 63.5986 39° Northeast  Level FlightAware Approximate
03:32PM -13.5054 63.6667 39° Northeast  Level FlightAware Approximate
03:33PM -13.4232 63.7348 39° Northeast  Level FlightAware Approximate
03:34PM -13.3410 63.8029 39° Northeast  Level FlightAware Approximate
03:35PM -13.2588 63.8709 39° Northeast  Level FlightAware Approximate
03:36PM -13.1765 63.9389 39° Northeast  Level FlightAware Approximate
03:37PM -13.0943 64.0068 39° Northeast  Level FlightAware Approximate
03:38PM -13.0120 64.0747 39° Northeast  Level FlightAware Approximate
03:39PM -12.9297 64.1425 39° Northeast  Level FlightAware Approximate
03:40PM -12.8474 64.2103 39° Northeast  Level FlightAware Approximate
03:41PM -12.7651 64.2780 39° Northeast  Level FlightAware Approximate
03:42PM -12.6827 64.3457 39° Northeast  Level FlightAware Approximate
03:43PM -12.6004 64.4134 39° Northeast  Level FlightAware Approximate
03:44PM -12.5180 64.4810 39° Northeast  Level FlightAware Approximate
03:45PM -12.4356 64.5486 39° Northeast  Level FlightAware Approximate
03:46PM -12.3532 64.6161 39° Northeast  Level FlightAware Approximate
03:47PM -12.2708 64.6836 39° Northeast  Level FlightAware Approximate
03:48PM -12.1884 64.7510 39° Northeast  Level FlightAware Approximate
03:49PM -12.1059 64.8184 39° Northeast  Level FlightAware Approximate
03:50PM -12.0234 64.8858 39° Northeast  Level FlightAware Approximate
03:51PM -11.9409 64.9531 39° Northeast  Level FlightAware Approximate
03:52PM -11.8584 65.0204 39° Northeast  Level FlightAware Approximate
03:53PM -11.7759 65.0876 39° Northeast  Level FlightAware Approximate
03:54PM -11.6934 65.1548 39° Northeast  Level FlightAware Approximate
03:55PM -11.6108 65.2220 39° Northeast  Level FlightAware Approximate
03:56PM -11.5282 65.2891 39° Northeast  Level FlightAware Approximate
03:57PM -11.4457 65.3562 39° Northeast  Level FlightAware Approximate
03:58PM -11.3631 65.4232 39° Northeast  Level FlightAware Approximate
03:59PM -11.2804 65.4902 38° Northeast  Level FlightAware Approximate
04:00PM -11.1978 65.5572 38° Northeast  Level FlightAware Approximate
04:01PM -11.1152 65.6241 38° Northeast  Level FlightAware Approximate
04:02PM -11.0325 65.6910 38° Northeast  Level FlightAware Approximate
04:03PM -10.9498 65.7578 38° Northeast  Level FlightAware Approximate
04:04PM -10.8672 65.8246 38° Northeast  Level FlightAware Approximate
04:05PM -10.7844 65.8914 38° Northeast  Level FlightAware Approximate
04:06PM -10.7017 65.9581 38° Northeast  Level FlightAware Approximate
04:07PM -10.6190 66.0248 38° Northeast  Level FlightAware Approximate
04:08PM -10.5362 66.0915 38° Northeast  Level FlightAware Approximate
04:09PM -10.4535 66.1581 38° Northeast  Level FlightAware Approximate
04:10PM -10.3707 66.2247 38° Northeast  Level FlightAware Approximate
04:11PM -10.2879 66.2913 38° Northeast  Level FlightAware Approximate
04:12PM -10.2051 66.3578 38° Northeast  Level FlightAware Approximate
04:13PM -10.1223 66.4243 38° Northeast  Level FlightAware Approximate
04:14PM -10.0395 66.4907 38° Northeast  Level FlightAware Approximate
04:15PM -9.9566 66.5571 38° Northeast  Level FlightAware Approximate
04:16PM -9.8738 66.6235 38° Northeast  Level FlightAware Approximate
04:17PM -9.7909 66.6898 38° Northeast  Level FlightAware Approximate
04:18PM -9.7080 66.7562 38° Northeast  Level FlightAware Approximate
04:19PM -9.6251 66.8224 38° Northeast  Level FlightAware Approximate
04:20PM -9.5422 66.8887 38° Northeast  Level FlightAware Approximate
04:21PM -9.4593 66.9549 38° Northeast  Level FlightAware Approximate
04:22PM -9.3764 67.0211 38° Northeast  Level FlightAware Approximate
04:23PM -9.2934 67.0872 38° Northeast  Level FlightAware Approximate
04:24PM -9.2104 67.1534 38° Northeast  Level FlightAware Approximate
04:25PM -9.1275 67.2195 38° Northeast  Level FlightAware Approximate
04:26PM -9.0445 67.2855 38° Northeast  Level FlightAware Approximate
04:27PM -8.9615 67.3515 38° Northeast  Level FlightAware Approximate
04:28PM -8.8785 67.4175 38° Northeast  Level FlightAware Approximate
04:29PM -8.7955 67.4835 38° Northeast  Level FlightAware Approximate
04:30PM -8.7125 67.5495 38° Northeast  Level FlightAware Approximate
04:31PM -8.6294 67.6154 38° Northeast  Level FlightAware Approximate
04:32PM -8.5464 67.6812 38° Northeast  Level FlightAware Approximate
04:33PM -8.4633 67.7471 38° Northeast  Level FlightAware Approximate
04:34PM -8.3802 67.8129 38° Northeast  Level FlightAware Approximate
04:35PM -8.2971 67.8787 38° Northeast  Level FlightAware Approximate
04:36PM -8.2141 67.9445 38° Northeast  Level FlightAware Approximate
04:37PM -8.1310 68.0102 38° Northeast  Level FlightAware Approximate
04:38PM -8.0478 68.0759 38° Northeast  Level FlightAware Approximate
04:39PM -7.9647 68.1416 38° Northeast  Level FlightAware Approximate
04:40PM -7.8816 68.2073 38° Northeast  Level FlightAware Approximate
04:41PM -7.7984 68.2729 38° Northeast  Level FlightAware Approximate
04:42PM -7.7153 68.3385 38° Northeast  Level FlightAware Approximate
04:43PM -7.6321 68.4041 38° Northeast  Level FlightAware Approximate
04:44PM -7.5489 68.4697 38° Northeast  Level FlightAware Approximate
04:45PM -7.4657 68.5352 38° Northeast  Level FlightAware Approximate
04:46PM -7.3825 68.6007 38° Northeast  Level FlightAware Approximate
04:47PM -7.2993 68.6662 38° Northeast  Level FlightAware Approximate
04:48PM -7.2161 68.7316 38° Northeast  Level FlightAware Approximate
04:49PM -7.1329 68.7971 38° Northeast  Level FlightAware Approximate
04:50PM -7.0497 68.8625 38° Northeast  Level FlightAware Approximate
04:51PM -6.9664 68.9279 38° Northeast  Level FlightAware Approximate
04:52PM -6.8832 68.9932 38° Northeast  Level FlightAware Approximate
04:53PM -6.7999 69.0586 38° Northeast  Level FlightAware Approximate
04:54PM -6.7167 69.1239 38° Northeast  Level FlightAware Approximate
04:55PM -6.6334 69.1892 38° Northeast  Level FlightAware Approximate
04:56PM -6.5501 69.2545 38° Northeast  Level FlightAware Approximate
04:57PM -6.4668 69.3197 38° Northeast  Level FlightAware Approximate
04:58PM -6.3835 69.3850 38° Northeast  Level FlightAware Approximate
04:59PM -6.3002 69.4502 38° Northeast  Level FlightAware Approximate
04:59PM -2.5500 71.2040 38° Northeast 453 521 41,000  Level FlightAware
04:59PM -2.4600 71.2440 24° Northeast 453 521 41,000  Level FlightAware
05:02PM -2.2457 71.3379 24° Northeast  Level FlightAware Approximate
05:03PM -2.1490 71.3803 24° Northeast  Level FlightAware Approximate
05:04PM -2.0523 71.4227 24° Northeast  Level FlightAware Approximate
05:05PM -1.9556 71.4650 24° Northeast  Level FlightAware Approximate
05:05PM -1.8390 71.5160 24° Northeast 461 531 41,000  Level FlightAware
05:05PM -1.7540 71.5530 24° Northeast 473 544 41,000  Level FlightAware
05:08PM -1.5397 71.6469 24° Northeast  Level FlightAware Approximate
05:09PM -1.4430 71.6892 24° Northeast  Level FlightAware Approximate
05:10PM -1.3463 71.7315 24° Northeast  Level FlightAware Approximate
05:10PM -1.1390 71.8130 24° Northeast 476 548 41,000  Level FlightAware
05:11PM -1.2496 71.7738 24° Northeast  Level FlightAware Approximate
05:11PM -1.0100 71.8600 20° North 468 539 41,000  Level FlightAware
05:12PM -0.9260 71.8910 20° North 462 532 41,000  Level FlightAware
05:13PM -0.8370 71.9240 20° North 460 529 41,000  Level FlightAware
05:13PM -0.7540 71.9560 21° North 461 531 41,000  Level FlightAware
05:14PM -0.6650 71.9890 20° North 463 533 41,000  Level FlightAware
05:15PM -0.5740 72.0210 19° North 466 536 41,000  Level FlightAware
05:16PM -0.4980 72.0430 16° North 451 519 41,000  Level FlightAware
05:16PM -0.3810 72.0870 21° North 461 531 41,000  Level FlightAware
05:17PM -0.2680 72.1430 26° Northeast 469 540 41,000  Level FlightAware
05:18PM -0.1980 72.1780 27° Northeast 467 537 41,000  Level FlightAware
05:19PM -0.1100 72.2160 23° Northeast 473 544 41,000  Level FlightAware
05:19PM -0.0350 72.2500 24° Northeast 479 551 41,000  Level FlightAware
05:20PM 0.0600 72.2920 24° Northeast 477 549 41,000  Level FlightAware
05:21PM 0.1570 72.3350 24° Northeast 475 547 41,000  Level FlightAware
05:22PM 0.2310 72.3670 23° Northeast 479 551 41,000  Level FlightAware
05:22PM 0.3170 72.4050 24° Northeast 477 549 41,000  Level FlightAware
05:23PM 0.3900 72.4370 24° Northeast 472 543 41,000  Level FlightAware
05:24PM 0.4850 72.4790 24° Northeast 473 544 41,000  Level FlightAware
05:24PM 0.5820 72.5210 23° Northeast 473 544 41,000  Level FlightAware
05:25PM 0.6580 72.5550 24° Northeast 472 543 41,000  Level FlightAware
05:26PM 0.7360 72.5900 24° Northeast 463 533 41,000  Level FlightAware
05:28PM 0.9014 72.6640 24° Northeast  Level FlightAware Approximate
05:29PM 0.9977 72.7071 24° Northeast  Level FlightAware Approximate
05:29PM 1.1780 72.7800 24° Northeast 457 526 41,000  Level FlightAware
05:30PM 1.0941 72.7503 24° Northeast  Level FlightAware Approximate
05:30PM 1.2650 72.8170 23° Northeast 473 544 41,000  Level FlightAware
05:31PM 1.3990 72.8790 25° Northeast 479 551 41,000  Level FlightAware
05:32PM 1.4820 72.9190 26° Northeast 483 556 41,000  Level FlightAware
05:33PM 1.5610 72.9580 26° Northeast 485 558 41,000  Level FlightAware
05:33PM 1.6460 73.0010 27° Northeast 486 559 41,000  Level FlightAware
05:34PM 1.7330 73.0450 27° Northeast 485 558 41,000  Level FlightAware
05:35PM 1.8160 73.0880 27° Northeast 476 548 41,000  Level FlightAware
05:35PM 1.8870 73.1210 25° Northeast 475 547 41,000  Level FlightAware
05:36PM 1.9660 73.1550 23° Northeast 474 545 41,000  Level FlightAware
05:37PM 2.0680 73.2000 24° Northeast 477 549 41,000  Level FlightAware
05:38PM 2.1590 73.2410 24° Northeast 480 552 41,000  Level FlightAware
05:38PM 2.2410 73.2770 24° Northeast 480 552 41,000  Level FlightAware
05:39PM 2.3310 73.3170 24° Northeast 478 550 41,000  Level FlightAware
05:40PM 2.4180 73.3560 24° Northeast 476 548 41,000  Level FlightAware
05:40PM 2.5050 73.3940 24° Northeast 477 549 41,000  Level FlightAware
05:41PM 2.6100 73.4460 26° Northeast 486 559 41,000  Level FlightAware
05:42PM 2.7010 73.5000 31° Northeast 486 559 41,000  Level FlightAware
05:43PM 2.7800 73.5460 30° Northeast 485 558 41,000  Level FlightAware
05:45PM 2.9622 73.6255 24° Northeast  Level FlightAware Approximate
05:45PM 3.0590 73.7100 24° Northeast 471 542 41,000  Level FlightAware
05:46PM 3.1460 73.7610 30° Northeast 472 543 41,000  Level FlightAware
05:46PM 3.2230 73.8060 30° Northeast 472 543 41,000  Level FlightAware
05:47PM 3.3080 73.8560 30° Northeast 472 543 41,000  Level FlightAware
05:48PM 3.3850 73.9020 31° Northeast 472 543 41,000  Level FlightAware
05:49PM 3.4620 73.9470 30° Northeast 472 543 41,000  Level FlightAware
05:49PM 3.5470 73.9970 30° Northeast 473 544 41,000  Level FlightAware
05:50PM 3.6220 74.0410 30° Northeast 472 543 41,000  Level FlightAware
05:51PM 3.6980 74.0860 31° Northeast 472 543 41,000  Level FlightAware
05:51PM 3.7890 74.1400 31° Northeast 471 542 41,000  Level FlightAware
05:52PM 3.8630 74.1830 30° Northeast 477 549 41,000  Level FlightAware
05:53PM 3.9520 74.2360 31° Northeast 472 543 41,000  Level FlightAware
05:54PM 4.0550 74.2960 30° Northeast 470 541 41,000  Level FlightAware
05:54PM 4.1210 74.3360 31° Northeast 469 540 41,000  Level FlightAware
05:55PM 4.2160 74.3910 30° Northeast 469 540 41,000  Level FlightAware
05:56PM 4.2950 74.4380 31° Northeast 469 540 41,000  Level FlightAware
05:57PM 4.3780 74.4870 30° Northeast 469 540 41,000  Level FlightAware
05:57PM 4.4550 74.5330 31° Northeast 469 540 41,000  Level FlightAware
05:58PM 4.5240 74.5730 30° Northeast 469 540 41,000  Level FlightAware
05:59PM 4.6150 74.6270 31° Northeast 466 536 41,000  Level FlightAware
05:59PM 4.6930 74.6740 31° Northeast 470 541 41,000  Level FlightAware
06:00PM 4.7700 74.7190 30° Northeast 470 541 41,000  Level FlightAware
06:01PM 4.8560 74.7700 31° Northeast 467 537 41,000  Level FlightAware
06:01PM 4.9310 74.8140 30° Northeast 468 539 41,000  Level FlightAware
06:04PM 5.1441 74.8870 19° North  Level Estimated
06:04PM 5.2390 74.9960 19° North 471 542 41,000  Level FlightAware
06:05PM 5.3150 75.0380 29° Northeast 472 543 41,000  Level FlightAware
06:06PM 5.4070 75.0710 20° North 464 534 41,000  Level FlightAware
06:08PM 5.6041 75.1363 18° North  Level Estimated
06:09PM 5.7044 75.1696 18° North  Level Estimated
06:10PM 5.8046 75.2028 18° North  Level Estimated
06:10PM 5.9090 75.2440 18° North 474 545 41,000  Level FlightAware
06:10PM 6.0160 75.2810 19° North 473 544 41,000  Level FlightAware
06:11PM 6.1090 75.3140 19° North 474 545 41,000  Level FlightAware
06:12PM 6.1720 75.3360 19° North 474 545 41,000  Level FlightAware
06:13PM 6.2730 75.3710 19° North 474 545 41,000  Level FlightAware
06:13PM 6.3440 75.3950 19° North 474 545 41,000  Level FlightAware
06:15PM 6.5610 75.4710 19° North 475 547 41,000  Level FlightAware
06:15PM 6.6530 75.5030 19° North 474 545 41,000  Level FlightAware
06:16PM 6.7470 75.5360 19° North 473 544 41,000  Level FlightAware
06:17PM 6.7950 75.5530 19° North 473 544 41,000  Level FlightAware
06:18PM 6.8650 75.5770 19° North 473 544 41,000  Level FlightAware
06:18PM 6.9530 75.6070 19° North 473 544 41,000  Level FlightAware
06:19PM 7.0940 75.6570 19° North 473 544 41,000  Level FlightAware
06:20PM 7.1600 75.6800 19° North 473 544 41,000  Level FlightAware
06:20PM 7.2470 75.7100 19° North 473 544 41,000  Level FlightAware
06:21PM 7.3180 75.7350 19° North 473 544 41,000  Level FlightAware
06:22PM 7.4400 75.7780 19° North 476 548 41,000  Level FlightAware
06:23PM 7.5440 75.8140 19° North 476 548 41,000  Level FlightAware
06:23PM 7.6150 75.8390 19° North 476 548 41,000  Level FlightAware
06:24PM 7.6970 75.8680 19° North 463 533 41,000  Level FlightAware
06:27PM 7.9446 75.9493 18° North  Level Estimated
06:28PM 8.0449 75.9823 18° North  Level Estimated
06:28PM 8.2110 76.0480 18° North 458 527 41,000  Level FlightAware
06:29PM 8.2960 76.0780 19° North 457 526 41,000  Level FlightAware
06:29PM 8.3620 76.1020 20° North 457 526 41,000  Level FlightAware
06:30PM 8.4300 76.1250 18° North 457 526 41,000  Level FlightAware
06:31PM 8.4980 76.1490 19° North 457 526 41,000  Level FlightAware
06:31PM 8.5660 76.1720 18° North 457 526 41,000  Level FlightAware
06:32PM 8.6510 76.2020 19° North 457 526 41,000 -360 Level FlightAware
06:35PM 8.8737 76.2746 18° North  Level Estimated
06:36PM 8.9742 76.3073 18° North  Level Estimated
06:37PM 9.0746 76.3401 18° North  Level Estimated
06:37PM 9.3150 76.4370 18° North 451 519 39,000  Level FlightAware
06:38PM 9.3850 76.4620 19° North 451 519 39,000  Level FlightAware
06:39PM 9.4730 76.4930 19° North 452 520 39,000  Level FlightAware
06:39PM 9.5530 76.5210 19° North 453 521 39,000  Level FlightAware
06:42PM 9.7761 76.5926 18° North  Level Estimated
06:42PM 9.9130 76.6490 18° North 458 527 39,000  Level FlightAware
06:43PM 9.9850 76.6750 20° North 458 527 39,000  Level FlightAware
06:44PM 10.0750 76.7060 19° North 458 527 39,000  Level FlightAware
06:44PM 10.1550 76.7350 20° North 459 528 39,000  Level FlightAware
06:45PM 10.2360 76.7640 19° North 457 526 39,000  Level FlightAware
06:46PM 10.3270 76.7960 19° North 457 526 39,000  Level FlightAware
06:46PM 10.4080 76.8250 19° North 460 529 39,000  Level FlightAware
06:47PM 10.4970 76.8560 19° North 461 531 39,000  Level FlightAware
06:48PM 10.5760 76.8850 20° North 460 529 39,000  Level FlightAware
06:49PM 10.6690 76.9180 19° North 460 529 39,000  Level FlightAware
06:49PM 10.7500 76.9470 19° North 460 529 39,000  Level FlightAware
06:50PM 10.8310 76.9760 19° North 461 531 39,000  Level FlightAware
06:51PM 10.9200 77.0070 19° North 461 531 39,000  Level FlightAware
06:51PM 11.0020 77.0370 20° North 461 531 39,000  Level FlightAware
06:52PM 11.0960 77.0620 15° North 458 527 39,000  Level FlightAware
06:53PM 11.1780 77.0790 11° North 456 525 39,000  Level FlightAware
06:53PM 11.2590 77.0970 12° North 457 526 39,000  Level FlightAware
06:54PM 11.3300 77.1130 12° North 457 526 39,000  Level FlightAware
06:55PM 11.4150 77.1310 12° North 458 527 39,000 -1,800 Level FlightAware
06:56PM 11.5320 77.1560 12° North 475 547 36,200 -3,300 Descending FlightAware
06:56PM 11.6180 77.1750 12° North 476 548 34,400 -1,560 Descending FlightAware
06:57PM 11.6870 77.1900 12° North 476 548 34,300 -120 Descending FlightAware
06:58PM 11.7780 77.2100 12° North 476 548 34,300 -2,400 Level FlightAware
06:58PM 11.8750 77.2310 12° North 459 528 30,700 -3,720 Descending FlightAware
06:59PM 11.9380 77.2450 12° North 452 520 29,400 -2,640 Descending FlightAware
07:00PM 12.0250 77.2640 12° North 431 496 27,000 -1,800 Descending FlightAware
07:00PM 12.0850 77.2770 12° North 431 496 27,000  Level FlightAware
07:01PM 12.1680 77.2950 12° North 431 496 27,000  Level FlightAware
07:02PM 12.2340 77.3100 13° North 431 496 27,000  Level FlightAware
07:02PM 12.3000 77.3240 12° North 431 496 27,000  Level FlightAware
07:03PM 12.3670 77.3380 12° North 431 496 27,000  Level FlightAware
07:06PM 12.5981 77.4398 23° Northeast  Level Estimated
07:07PM 12.6950 77.4826 23° Northeast  Level Estimated
07:08PM 12.7920 77.5254 23° Northeast  Level Estimated
07:09PM 12.8889 77.5683 23° Northeast  Level Estimated
07:10PM 12.9858 77.6112 23° Northeast  Level Estimated
07:11PM 13.0827 77.6541 23° Northeast  Level Estimated
07:12PM 13.1796 77.6970 23° Northeast  Level Estimated
07:13PM 13.1989 77.7056 23° Northeast  Level Estimated
07:14PM 13.1989 77.7056 256° West  Level Estimated
07:15PM 13.1989 77.7056 256° West  Level Estimated
07:16PM 13.1989 77.7056 256° West  Level Estimated
07:17PM 13.1989 77.7056 256° West  Level Estimated
07:18PM 13.1989 77.7056 256° West  Level Estimated
07:19PM 13.1989 77.7056 256° West  Level Estimated
07:20PM 13.1989 77.7056 256° West  Level Estimated
07:21PM 13.1989 77.7056 256° West  Level Estimated
07:22PM 13.1989 77.7056 256° West  Level Estimated
07:23PM 13.1989 77.7056 256° West  Level Estimated
07:24PM 13.1989 77.7056 256° West  Level Estimated
07:25PM 13.1989 77.7056 256° West  Level Estimated
07:26PM 13.1989 77.7056 256° West  Level Estimated
07:27PM 13.1989 77.7056 256° West  Level Estimated
07:28PM 13.1989 77.7056 256° West  Level Estimated
07:29PM 13.1989 77.7056 256° West  Level Estimated
07:30PM 13.1989 77.7056 256° West  Level Estimated
07:31PM 13.1989 77.7056 256° West  Level Estimated